sensor_id;sensor_type;location;lat;lon;timestamp;P1;durP1;ratioP1;P2;durP2;ratioP2
16504;SDS011;8365;51.030;4.696;2023-09-12T00:01:52;17.08;;;15.27;;
16504;SDS011;8365;51.030;4.696;2023-09-12T00:04:23;17.73;;;15.93;;
16504;SDS011;8365;51.030;4.696;2023-09-12T00:06:53;18.83;;;14.30;;
16504;SDS011;8365;51.030;4.696;2023-09-12T00:09:23;16.98;;;14.90;;
16504;SDS011;8365;51.030;4.696;2023-09-12T00:11:54;15.63;;;13.95;;
16504;SDS011;8365;51.030;4.696;2023-09-12T00:14:24;16.15;;;14.40;;
16504;SDS011;8365;51.030;4.696;2023-09-12T00:16:55;16.77;;;14.95;;
16504;SDS011;8365;51.030;4.696;2023-09-12T00:19:25;15.65;;;14.15;;
16504;SDS011;8365;51.030;4.696;2023-09-12T00:21:58;17.35;;;15.27;;
16504;SDS011;8365;51.030;4.696;2023-09-12T00:24:31;18.02;;;15.50;;
16504;SDS011;8365;51.030;4.696;2023-09-12T00:27:04;18.38;;;15.65;;
16504;SDS011;8365;51.030;4.696;2023-09-12T00:29:35;17.58;;;15.57;;
16504;SDS011;8365;51.030;4.696;2023-09-12T00:32:06;17.63;;;15.05;;
16504;SDS011;8365;51.030;4.696;2023-09-12T00:34:39;19.00;;;17.02;;
16504;SDS011;8365;51.030;4.696;2023-09-12T00:37:09;20.00;;;15.77;;
16504;SDS011;8365;51.030;4.696;2023-09-12T00:39:40;21.73;;;15.77;;
16504;SDS011;8365;51.030;4.696;2023-09-12T00:42:10;20.48;;;16.20;;
16504;SDS011;8365;51.030;4.696;2023-09-12T00:44:43;17.10;;;15.38;;
16504;SDS011;8365;51.030;4.696;2023-09-12T00:47:15;18.02;;;15.60;;
16504;SDS011;8365;51.030;4.696;2023-09-12T00:49:47;18.73;;;15.55;;
16504;SDS011;8365;51.030;4.696;2023-09-12T00:52:18;17.90;;;15.70;;
16504;SDS011;8365;51.030;4.696;2023-09-12T00:54:51;17.98;;;16.08;;
16504;SDS011;8365;51.030;4.696;2023-09-12T00:57:25;17.65;;;15.40;;
16504;SDS011;8365;51.030;4.696;2023-09-12T00:59:56;16.33;;;14.45;;
16504;SDS011;8365;51.030;4.696;2023-09-12T01:02:28;17.00;;;15.23;;
16504;SDS011;8365;51.030;4.696;2023-09-12T01:04:59;16.75;;;14.18;;
16504;SDS011;8365;51.030;4.696;2023-09-12T01:07:30;16.92;;;14.70;;
16504;SDS011;8365;51.030;4.696;2023-09-12T01:10:00;18.20;;;14.52;;
16504;SDS011;8365;51.030;4.696;2023-09-12T01:12:31;16.63;;;14.63;;
16504;SDS011;8365;51.030;4.696;2023-09-12T01:15:01;16.10;;;14.48;;
16504;SDS011;8365;51.030;4.696;2023-09-12T01:17:36;15.88;;;14.27;;
16504;SDS011;8365;51.030;4.696;2023-09-12T01:20:06;15.75;;;14.02;;
16504;SDS011;8365;51.030;4.696;2023-09-12T01:28:24;17.48;;;13.60;;
16504;SDS011;8365;51.030;4.696;2023-09-12T01:31:01;14.95;;;13.55;;
16504;SDS011;8365;51.030;4.696;2023-09-12T01:33:33;15.90;;;13.85;;
16504;SDS011;8365;51.030;4.696;2023-09-12T01:36:03;17.02;;;13.98;;
16504;SDS011;8365;51.030;4.696;2023-09-12T01:38:34;14.90;;;13.40;;
16504;SDS011;8365;51.030;4.696;2023-09-12T01:41:04;15.27;;;13.75;;
16504;SDS011;8365;51.030;4.696;2023-09-12T01:43:36;15.35;;;13.75;;
16504;SDS011;8365;51.030;4.696;2023-09-12T01:46:09;16.17;;;14.52;;
16504;SDS011;8365;51.030;4.696;2023-09-12T01:48:39;16.52;;;14.77;;
16504;SDS011;8365;51.030;4.696;2023-09-12T01:51:10;20.42;;;14.70;;
16504;SDS011;8365;51.030;4.696;2023-09-12T01:53:42;16.17;;;14.63;;
16504;SDS011;8365;51.030;4.696;2023-09-12T01:56:15;18.55;;;14.27;;
16504;SDS011;8365;51.030;4.696;2023-09-12T01:58:47;15.95;;;14.35;;
16504;SDS011;8365;51.030;4.696;2023-09-12T02:01:18;14.80;;;13.32;;
16504;SDS011;8365;51.030;4.696;2023-09-12T02:03:48;17.63;;;14.35;;
16504;SDS011;8365;51.030;4.696;2023-09-12T02:06:19;17.50;;;14.38;;
16504;SDS011;8365;51.030;4.696;2023-09-12T02:08:49;16.63;;;14.02;;
16504;SDS011;8365;51.030;4.696;2023-09-12T02:11:20;15.02;;;12.68;;
16504;SDS011;8365;51.030;4.696;2023-09-12T02:13:50;14.63;;;12.82;;
16504;SDS011;8365;51.030;4.696;2023-09-12T02:16:21;14.20;;;12.85;;
16504;SDS011;8365;51.030;4.696;2023-09-12T02:18:51;14.65;;;13.15;;
16504;SDS011;8365;51.030;4.696;2023-09-12T02:21:25;17.63;;;13.45;;
16504;SDS011;8365;51.030;4.696;2023-09-12T02:23:55;14.30;;;12.90;;
16504;SDS011;8365;51.030;4.696;2023-09-12T02:26:26;15.02;;;13.32;;
16504;SDS011;8365;51.030;4.696;2023-09-12T02:28:56;14.68;;;13.00;;
16504;SDS011;8365;51.030;4.696;2023-09-12T02:31:27;17.92;;;13.35;;
16504;SDS011;8365;51.030;4.696;2023-09-12T02:33:57;17.65;;;13.25;;
16504;SDS011;8365;51.030;4.696;2023-09-12T02:36:30;14.80;;;13.20;;
16504;SDS011;8365;51.030;4.696;2023-09-12T02:39:01;16.02;;;12.40;;
16504;SDS011;8365;51.030;4.696;2023-09-12T02:41:33;13.35;;;11.93;;
16504;SDS011;8365;51.030;4.696;2023-09-12T02:44:03;14.25;;;12.05;;
16504;SDS011;8365;51.030;4.696;2023-09-12T02:46:34;13.55;;;12.25;;
16504;SDS011;8365;51.030;4.696;2023-09-12T02:49:04;16.83;;;14.48;;
16504;SDS011;8365;51.030;4.696;2023-09-12T02:51:38;13.63;;;12.32;;
16504;SDS011;8365;51.030;4.696;2023-09-12T02:54:12;14.15;;;12.75;;
16504;SDS011;8365;51.030;4.696;2023-09-12T02:56:47;15.50;;;13.90;;
16504;SDS011;8365;51.030;4.696;2023-09-12T02:59:18;15.25;;;13.65;;
16504;SDS011;8365;51.030;4.696;2023-09-12T03:01:50;13.82;;;12.52;;
16504;SDS011;8365;51.030;4.696;2023-09-12T03:04:21;14.15;;;12.75;;
16504;SDS011;8365;51.030;4.696;2023-09-12T03:06:51;15.07;;;11.98;;
16504;SDS011;8365;51.030;4.696;2023-09-12T03:09:22;14.27;;;12.73;;
16504;SDS011;8365;51.030;4.696;2023-09-12T03:11:53;14.15;;;12.70;;
16504;SDS011;8365;51.030;4.696;2023-09-12T03:14:23;15.05;;;13.27;;
16504;SDS011;8365;51.030;4.696;2023-09-12T03:16:54;18.45;;;15.02;;
16504;SDS011;8365;51.030;4.696;2023-09-12T03:19:25;14.88;;;13.43;;
16504;SDS011;8365;51.030;4.696;2023-09-12T03:21:56;15.10;;;13.70;;
16504;SDS011;8365;51.030;4.696;2023-09-12T03:24:26;14.35;;;12.27;;
16504;SDS011;8365;51.030;4.696;2023-09-12T03:26:58;16.52;;;13.10;;
16504;SDS011;8365;51.030;4.696;2023-09-12T03:29:29;15.13;;;13.55;;
16504;SDS011;8365;51.030;4.696;2023-09-12T03:31:59;15.75;;;14.27;;
16504;SDS011;8365;51.030;4.696;2023-09-12T03:34:30;16.27;;;13.85;;
16504;SDS011;8365;51.030;4.696;2023-09-12T03:37:00;14.55;;;13.05;;
16504;SDS011;8365;51.030;4.696;2023-09-12T03:39:31;14.85;;;13.35;;
16504;SDS011;8365;51.030;4.696;2023-09-12T03:42:01;14.85;;;13.52;;
16504;SDS011;8365;51.030;4.696;2023-09-12T03:44:32;15.85;;;13.23;;
16504;SDS011;8365;51.030;4.696;2023-09-12T03:47:02;15.15;;;13.65;;
16504;SDS011;8365;51.030;4.696;2023-09-12T03:49:33;17.00;;;14.52;;
16504;SDS011;8365;51.030;4.696;2023-09-12T03:52:04;15.57;;;13.18;;
16504;SDS011;8365;51.030;4.696;2023-09-12T03:54:34;15.57;;;12.88;;
16504;SDS011;8365;51.030;4.696;2023-09-12T03:57:05;15.95;;;14.27;;
16504;SDS011;8365;51.030;4.696;2023-09-12T03:59:35;17.80;;;14.68;;
16504;SDS011;8365;51.030;4.696;2023-09-12T04:02:06;16.20;;;14.60;;
16504;SDS011;8365;51.030;4.696;2023-09-12T04:04:36;15.55;;;13.05;;
16504;SDS011;8365;51.030;4.696;2023-09-12T04:07:07;15.73;;;13.23;;
16504;SDS011;8365;51.030;4.696;2023-09-12T04:09:38;16.45;;;14.07;;
16504;SDS011;8365;51.030;4.696;2023-09-12T04:12:08;16.33;;;13.38;;
16504;SDS011;8365;51.030;4.696;2023-09-12T04:14:39;17.92;;;14.05;;
16504;SDS011;8365;51.030;4.696;2023-09-12T04:17:11;16.20;;;14.50;;
16504;SDS011;8365;51.030;4.696;2023-09-12T04:19:42;16.67;;;14.15;;
16504;SDS011;8365;51.030;4.696;2023-09-12T04:22:13;16.35;;;13.73;;
16504;SDS011;8365;51.030;4.696;2023-09-12T04:24:44;18.33;;;13.38;;
16504;SDS011;8365;51.030;4.696;2023-09-12T04:27:14;15.23;;;12.60;;
16504;SDS011;8365;51.030;4.696;2023-09-12T04:29:45;16.55;;;13.68;;
16504;SDS011;8365;51.030;4.696;2023-09-12T04:32:15;18.23;;;14.00;;
16504;SDS011;8365;51.030;4.696;2023-09-12T04:34:53;17.65;;;13.90;;
16504;SDS011;8365;51.030;4.696;2023-09-12T04:37:25;16.50;;;13.95;;
16504;SDS011;8365;51.030;4.696;2023-09-12T04:39:56;17.15;;;14.43;;
16504;SDS011;8365;51.030;4.696;2023-09-12T04:42:28;20.05;;;15.57;;
16504;SDS011;8365;51.030;4.696;2023-09-12T04:45:00;18.95;;;14.73;;
16504;SDS011;8365;51.030;4.696;2023-09-12T04:47:30;20.88;;;17.98;;
16504;SDS011;8365;51.030;4.696;2023-09-12T04:50:01;19.05;;;16.00;;
16504;SDS011;8365;51.030;4.696;2023-09-12T04:52:32;17.27;;;15.25;;
16504;SDS011;8365;51.030;4.696;2023-09-12T04:55:02;18.77;;;14.95;;
16504;SDS011;8365;51.030;4.696;2023-09-12T04:57:33;21.38;;;18.00;;
16504;SDS011;8365;51.030;4.696;2023-09-12T05:00:04;22.60;;;16.85;;
16504;SDS011;8365;51.030;4.696;2023-09-12T05:02:38;23.45;;;17.83;;
16504;SDS011;8365;51.030;4.696;2023-09-12T05:05:10;22.95;;;19.02;;
16504;SDS011;8365;51.030;4.696;2023-09-12T05:07:41;21.08;;;17.90;;
16504;SDS011;8365;51.030;4.696;2023-09-12T05:10:14;24.58;;;20.48;;
16504;SDS011;8365;51.030;4.696;2023-09-12T05:12:44;25.30;;;19.40;;
16504;SDS011;8365;51.030;4.696;2023-09-12T05:15:15;23.95;;;18.70;;
16504;SDS011;8365;51.030;4.696;2023-09-12T05:17:45;22.40;;;17.75;;
16504;SDS011;8365;51.030;4.696;2023-09-12T05:20:16;21.83;;;18.30;;
16504;SDS011;8365;51.030;4.696;2023-09-12T05:22:46;24.55;;;18.92;;
16504;SDS011;8365;51.030;4.696;2023-09-12T05:25:17;21.55;;;18.92;;
16504;SDS011;8365;51.030;4.696;2023-09-12T05:27:47;23.63;;;19.25;;
16504;SDS011;8365;51.030;4.696;2023-09-12T05:30:18;22.77;;;19.23;;
16504;SDS011;8365;51.030;4.696;2023-09-12T05:32:48;25.20;;;22.23;;
16504;SDS011;8365;51.030;4.696;2023-09-12T05:35:19;27.45;;;21.05;;
16504;SDS011;8365;51.030;4.696;2023-09-12T05:37:50;25.50;;;19.85;;
16504;SDS011;8365;51.030;4.696;2023-09-12T05:40:21;28.50;;;20.55;;
16504;SDS011;8365;51.030;4.696;2023-09-12T05:42:51;25.52;;;20.52;;
16504;SDS011;8365;51.030;4.696;2023-09-12T05:45:22;28.67;;;22.73;;
16504;SDS011;8365;51.030;4.696;2023-09-12T05:47:53;29.17;;;22.13;;
16504;SDS011;8365;51.030;4.696;2023-09-12T05:50:26;26.55;;;21.05;;
16504;SDS011;8365;51.030;4.696;2023-09-12T05:52:58;32.72;;;22.67;;
16504;SDS011;8365;51.030;4.696;2023-09-12T05:55:29;32.88;;;23.10;;
16504;SDS011;8365;51.030;4.696;2023-09-12T05:58:02;34.70;;;23.42;;
16504;SDS011;8365;51.030;4.696;2023-09-12T06:00:35;28.88;;;21.38;;
16504;SDS011;8365;51.030;4.696;2023-09-12T06:03:08;31.48;;;23.60;;
16504;SDS011;8365;51.030;4.696;2023-09-12T06:05:41;34.40;;;22.05;;
16504;SDS011;8365;51.030;4.696;2023-09-12T06:08:12;34.40;;;23.00;;
16504;SDS011;8365;51.030;4.696;2023-09-12T06:10:44;29.05;;;21.52;;
16504;SDS011;8365;51.030;4.696;2023-09-12T06:13:15;29.48;;;21.42;;
16504;SDS011;8365;51.030;4.696;2023-09-12T06:15:45;23.80;;;18.77;;
16504;SDS011;8365;51.030;4.696;2023-09-12T06:18:18;27.42;;;20.27;;
16504;SDS011;8365;51.030;4.696;2023-09-12T06:20:51;32.47;;;22.65;;
16504;SDS011;8365;51.030;4.696;2023-09-12T06:23:22;27.88;;;21.27;;
16504;SDS011;8365;51.030;4.696;2023-09-12T06:25:52;28.27;;;21.15;;
16504;SDS011;8365;51.030;4.696;2023-09-12T06:28:26;28.95;;;20.67;;
16504;SDS011;8365;51.030;4.696;2023-09-12T06:31:00;32.08;;;20.80;;
16504;SDS011;8365;51.030;4.696;2023-09-12T06:33:31;30.05;;;21.30;;
16504;SDS011;8365;51.030;4.696;2023-09-12T06:36:01;28.17;;;21.35;;
16504;SDS011;8365;51.030;4.696;2023-09-12T06:38:32;26.35;;;20.98;;
16504;SDS011;8365;51.030;4.696;2023-09-12T06:41:03;26.52;;;21.80;;
16504;SDS011;8365;51.030;4.696;2023-09-12T06:43:34;32.33;;;22.92;;
16504;SDS011;8365;51.030;4.696;2023-09-12T06:46:04;28.30;;;22.55;;
16504;SDS011;8365;51.030;4.696;2023-09-12T06:48:35;30.73;;;23.00;;
16504;SDS011;8365;51.030;4.696;2023-09-12T06:51:06;29.85;;;22.85;;
16504;SDS011;8365;51.030;4.696;2023-09-12T06:53:38;26.30;;;22.65;;
16504;SDS011;8365;51.030;4.696;2023-09-12T06:56:09;32.33;;;24.20;;
16504;SDS011;8365;51.030;4.696;2023-09-12T06:58:39;29.77;;;22.58;;
16504;SDS011;8365;51.030;4.696;2023-09-12T07:01:10;28.08;;;23.20;;
16504;SDS011;8365;51.030;4.696;2023-09-12T07:03:40;33.53;;;24.80;;
16504;SDS011;8365;51.030;4.696;2023-09-12T07:06:11;34.05;;;26.83;;
16504;SDS011;8365;51.030;4.696;2023-09-12T07:08:41;34.15;;;27.90;;
16504;SDS011;8365;51.030;4.696;2023-09-12T07:11:12;38.95;;;29.67;;
16504;SDS011;8365;51.030;4.696;2023-09-12T07:13:42;42.38;;;29.88;;
16504;SDS011;8365;51.030;4.696;2023-09-12T07:16:12;39.40;;;29.80;;
16504;SDS011;8365;51.030;4.696;2023-09-12T07:18:43;37.55;;;30.00;;
16504;SDS011;8365;51.030;4.696;2023-09-12T07:21:13;40.53;;;31.35;;
16504;SDS011;8365;51.030;4.696;2023-09-12T07:23:44;38.00;;;30.50;;
16504;SDS011;8365;51.030;4.696;2023-09-12T07:26:14;42.28;;;33.53;;
16504;SDS011;8365;51.030;4.696;2023-09-12T07:28:45;42.47;;;34.33;;
16504;SDS011;8365;51.030;4.696;2023-09-12T07:31:18;42.30;;;32.35;;
16504;SDS011;8365;51.030;4.696;2023-09-12T07:33:49;38.45;;;31.88;;
16504;SDS011;8365;51.030;4.696;2023-09-12T07:36:19;43.55;;;31.92;;
16504;SDS011;8365;51.030;4.696;2023-09-12T07:38:49;40.70;;;31.48;;
16504;SDS011;8365;51.030;4.696;2023-09-12T07:41:22;44.72;;;32.60;;
16504;SDS011;8365;51.030;4.696;2023-09-12T07:43:53;41.38;;;32.38;;
16504;SDS011;8365;51.030;4.696;2023-09-12T07:46:26;35.22;;;28.80;;
16504;SDS011;8365;51.030;4.696;2023-09-12T07:48:58;36.25;;;30.50;;
16504;SDS011;8365;51.030;4.696;2023-09-12T07:51:29;35.72;;;28.00;;
16504;SDS011;8365;51.030;4.696;2023-09-12T07:53:59;35.67;;;29.23;;
16504;SDS011;8365;51.030;4.696;2023-09-12T07:56:32;34.55;;;30.48;;
16504;SDS011;8365;51.030;4.696;2023-09-12T07:59:03;34.85;;;29.45;;
16504;SDS011;8365;51.030;4.696;2023-09-12T08:01:35;35.38;;;28.42;;
16504;SDS011;8365;51.030;4.696;2023-09-12T08:04:08;36.25;;;29.67;;
16504;SDS011;8365;51.030;4.696;2023-09-12T08:06:38;35.83;;;29.10;;
16504;SDS011;8365;51.030;4.696;2023-09-12T08:09:09;34.08;;;28.85;;
16504;SDS011;8365;51.030;4.696;2023-09-12T08:11:40;32.92;;;28.00;;
16504;SDS011;8365;51.030;4.696;2023-09-12T08:14:10;34.72;;;26.42;;
16504;SDS011;8365;51.030;4.696;2023-09-12T08:16:41;36.42;;;28.98;;
16504;SDS011;8365;51.030;4.696;2023-09-12T08:19:11;33.58;;;29.33;;
16504;SDS011;8365;51.030;4.696;2023-09-12T08:21:41;35.55;;;27.60;;
16504;SDS011;8365;51.030;4.696;2023-09-12T08:24:14;32.13;;;26.05;;
16504;SDS011;8365;51.030;4.696;2023-09-12T08:26:45;30.00;;;24.10;;
16504;SDS011;8365;51.030;4.696;2023-09-12T08:29:17;31.40;;;24.67;;
16504;SDS011;8365;51.030;4.696;2023-09-12T08:31:48;27.60;;;24.55;;
16504;SDS011;8365;51.030;4.696;2023-09-12T08:34:19;30.58;;;25.67;;
16504;SDS011;8365;51.030;4.696;2023-09-12T08:36:50;28.60;;;25.15;;
16504;SDS011;8365;51.030;4.696;2023-09-12T08:39:25;27.75;;;24.75;;
16504;SDS011;8365;51.030;4.696;2023-09-12T08:41:56;29.20;;;25.05;;
16504;SDS011;8365;51.030;4.696;2023-09-12T08:44:26;31.60;;;25.65;;
16504;SDS011;8365;51.030;4.696;2023-09-12T08:46:59;31.95;;;25.85;;
16504;SDS011;8365;51.030;4.696;2023-09-12T08:49:32;32.97;;;25.98;;
16504;SDS011;8365;51.030;4.696;2023-09-12T08:52:05;34.85;;;28.08;;
16504;SDS011;8365;51.030;4.696;2023-09-12T08:54:36;30.25;;;25.38;;
16504;SDS011;8365;51.030;4.696;2023-09-12T08:57:06;27.65;;;24.52;;
16504;SDS011;8365;51.030;4.696;2023-09-12T08:59:37;33.85;;;26.45;;
16504;SDS011;8365;51.030;4.696;2023-09-12T09:02:13;34.38;;;26.73;;
16504;SDS011;8365;51.030;4.696;2023-09-12T09:04:45;32.22;;;25.88;;
16504;SDS011;8365;51.030;4.696;2023-09-12T09:07:20;29.85;;;24.20;;
16504;SDS011;8365;51.030;4.696;2023-09-12T09:09:52;32.05;;;26.20;;
16504;SDS011;8365;51.030;4.696;2023-09-12T09:12:23;32.58;;;25.45;;
16504;SDS011;8365;51.030;4.696;2023-09-12T09:14:54;29.25;;;25.10;;
16504;SDS011;8365;51.030;4.696;2023-09-12T09:17:24;31.20;;;24.75;;
16504;SDS011;8365;51.030;4.696;2023-09-12T09:19:55;28.52;;;23.67;;
16504;SDS011;8365;51.030;4.696;2023-09-12T09:22:25;25.15;;;21.58;;
16504;SDS011;8365;51.030;4.696;2023-09-12T09:25:09;25.45;;;22.65;;
16504;SDS011;8365;51.030;4.696;2023-09-12T09:27:41;23.50;;;19.90;;
16504;SDS011;8365;51.030;4.696;2023-09-12T09:30:12;24.02;;;19.42;;
16504;SDS011;8365;51.030;4.696;2023-09-12T09:32:42;20.27;;;18.20;;
16504;SDS011;8365;51.030;4.696;2023-09-12T09:35:15;21.67;;;17.98;;
16504;SDS011;8365;51.030;4.696;2023-09-12T09:37:45;20.40;;;17.48;;
16504;SDS011;8365;51.030;4.696;2023-09-12T09:40:16;21.15;;;18.85;;
16504;SDS011;8365;51.030;4.696;2023-09-12T09:42:46;21.02;;;18.05;;
16504;SDS011;8365;51.030;4.696;2023-09-12T09:45:17;21.27;;;17.50;;
16504;SDS011;8365;51.030;4.696;2023-09-12T09:47:49;19.50;;;17.48;;
16504;SDS011;8365;51.030;4.696;2023-09-12T09:50:20;17.60;;;15.75;;
16504;SDS011;8365;51.030;4.696;2023-09-12T09:52:54;15.65;;;13.68;;
16504;SDS011;8365;51.030;4.696;2023-09-12T09:55:26;15.43;;;13.05;;
16504;SDS011;8365;51.030;4.696;2023-09-12T09:57:56;13.15;;;11.70;;
16504;SDS011;8365;51.030;4.696;2023-09-12T10:00:27;14.98;;;13.48;;
16504;SDS011;8365;51.030;4.696;2023-09-12T10:02:59;15.43;;;13.88;;
16504;SDS011;8365;51.030;4.696;2023-09-12T10:05:34;17.08;;;14.70;;
16504;SDS011;8365;51.030;4.696;2023-09-12T10:08:07;18.48;;;14.32;;
16504;SDS011;8365;51.030;4.696;2023-09-12T10:10:40;17.65;;;15.45;;
16504;SDS011;8365;51.030;4.696;2023-09-12T10:13:11;17.17;;;15.25;;
16504;SDS011;8365;51.030;4.696;2023-09-12T10:15:44;14.73;;;13.15;;
16504;SDS011;8365;51.030;4.696;2023-09-12T10:18:16;14.70;;;13.13;;
16504;SDS011;8365;51.030;4.696;2023-09-12T10:20:52;15.38;;;12.63;;
16504;SDS011;8365;51.030;4.696;2023-09-12T10:23:27;14.75;;;12.52;;
16504;SDS011;8365;51.030;4.696;2023-09-12T10:26:09;17.48;;;14.57;;
16504;SDS011;8365;51.030;4.696;2023-09-12T10:28:46;15.73;;;14.10;;
16504;SDS011;8365;51.030;4.696;2023-09-12T10:31:18;14.68;;;12.85;;
16504;SDS011;8365;51.030;4.696;2023-09-12T10:33:49;13.93;;;12.10;;
16504;SDS011;8365;51.030;4.696;2023-09-12T10:36:21;14.07;;;12.68;;
16504;SDS011;8365;51.030;4.696;2023-09-12T10:38:55;14.55;;;13.05;;
16504;SDS011;8365;51.030;4.696;2023-09-12T10:41:28;13.25;;;11.88;;
16504;SDS011;8365;51.030;4.696;2023-09-12T10:43:59;16.05;;;12.55;;
16504;SDS011;8365;51.030;4.696;2023-09-12T10:46:31;13.00;;;11.70;;
16504;SDS011;8365;51.030;4.696;2023-09-12T10:49:03;12.05;;;10.82;;
16504;SDS011;8365;51.030;4.696;2023-09-12T10:51:43;12.98;;;11.50;;
16504;SDS011;8365;51.030;4.696;2023-09-12T10:54:23;14.75;;;11.10;;
16504;SDS011;8365;51.030;4.696;2023-09-12T10:57:08;13.65;;;12.13;;
16504;SDS011;8365;51.030;4.696;2023-09-12T11:02:30;12.35;;;11.15;;
16504;SDS011;8365;51.030;4.696;2023-09-12T11:08:00;11.90;;;10.68;;
16504;SDS011;8365;51.030;4.696;2023-09-12T11:10:34;13.02;;;11.73;;
16504;SDS011;8365;51.030;4.696;2023-09-12T11:13:04;12.65;;;11.10;;
16504;SDS011;8365;51.030;4.696;2023-09-12T11:15:35;14.23;;;11.88;;
16504;SDS011;8365;51.030;4.696;2023-09-12T11:18:25;11.30;;;10.25;;
16504;SDS011;8365;51.030;4.696;2023-09-12T11:20:59;15.70;;;11.95;;
16504;SDS011;8365;51.030;4.696;2023-09-12T11:23:33;11.25;;;10.25;;
16504;SDS011;8365;51.030;4.696;2023-09-12T11:26:06;11.43;;;10.38;;
16504;SDS011;8365;51.030;4.696;2023-09-12T11:28:37;11.38;;;10.20;;
16504;SDS011;8365;51.030;4.696;2023-09-12T11:31:09;9.88;;;9.00;;
16504;SDS011;8365;51.030;4.696;2023-09-12T11:33:40;9.73;;;8.68;;
16504;SDS011;8365;51.030;4.696;2023-09-12T11:36:12;9.73;;;8.77;;
16504;SDS011;8365;51.030;4.696;2023-09-12T11:38:44;10.02;;;9.02;;
16504;SDS011;8365;51.030;4.696;2023-09-12T11:44:09;10.18;;;9.13;;
16504;SDS011;8365;51.030;4.696;2023-09-12T11:46:40;10.40;;;9.13;;
16504;SDS011;8365;51.030;4.696;2023-09-12T11:49:11;10.38;;;9.40;;
16504;SDS011;8365;51.030;4.696;2023-09-12T11:51:47;10.40;;;8.95;;
16504;SDS011;8365;51.030;4.696;2023-09-12T11:54:24;12.27;;;9.85;;
16504;SDS011;8365;51.030;4.696;2023-09-12T11:56:59;9.68;;;8.77;;
16504;SDS011;8365;51.030;4.696;2023-09-12T11:59:31;11.20;;;10.10;;
16504;SDS011;8365;51.030;4.696;2023-09-12T12:02:05;10.23;;;9.23;;
16504;SDS011;8365;51.030;4.696;2023-09-12T12:04:37;9.90;;;8.98;;
16504;SDS011;8365;51.030;4.696;2023-09-12T12:07:10;10.77;;;9.73;;
16504;SDS011;8365;51.030;4.696;2023-09-12T12:09:43;10.70;;;9.60;;
16504;SDS011;8365;51.030;4.696;2023-09-12T12:12:14;12.88;;;10.55;;
16504;SDS011;8365;51.030;4.696;2023-09-12T12:14:45;10.35;;;9.02;;
16504;SDS011;8365;51.030;4.696;2023-09-12T12:17:15;10.63;;;9.52;;
16504;SDS011;8365;51.030;4.696;2023-09-12T12:19:46;13.15;;;10.93;;
16504;SDS011;8365;51.030;4.696;2023-09-12T12:22:17;11.40;;;10.18;;
16504;SDS011;8365;51.030;4.696;2023-09-12T12:24:49;11.50;;;10.05;;
16504;SDS011;8365;51.030;4.696;2023-09-12T12:27:21;11.15;;;10.02;;
16504;SDS011;8365;51.030;4.696;2023-09-12T12:29:53;12.18;;;10.70;;
16504;SDS011;8365;51.030;4.696;2023-09-12T12:32:24;12.85;;;11.55;;
16504;SDS011;8365;51.030;4.696;2023-09-12T12:34:57;11.68;;;10.57;;
16504;SDS011;8365;51.030;4.696;2023-09-12T12:37:29;13.25;;;11.02;;
16504;SDS011;8365;51.030;4.696;2023-09-12T12:40:00;10.98;;;9.68;;
16504;SDS011;8365;51.030;4.696;2023-09-12T12:42:33;12.35;;;10.35;;
16504;SDS011;8365;51.030;4.696;2023-09-12T12:45:11;11.52;;;10.50;;
16504;SDS011;8365;51.030;4.696;2023-09-12T12:47:43;12.02;;;10.82;;
16504;SDS011;8365;51.030;4.696;2023-09-12T12:50:17;12.60;;;10.80;;
16504;SDS011;8365;51.030;4.696;2023-09-12T12:52:50;10.77;;;9.77;;
16504;SDS011;8365;51.030;4.696;2023-09-12T12:55:20;11.88;;;10.73;;
16504;SDS011;8365;51.030;4.696;2023-09-12T12:57:55;9.73;;;8.80;;
16504;SDS011;8365;51.030;4.696;2023-09-12T13:00:25;10.27;;;9.25;;
16504;SDS011;8365;51.030;4.696;2023-09-12T13:02:56;10.75;;;9.05;;
16504;SDS011;8365;51.030;4.696;2023-09-12T13:05:29;9.98;;;8.63;;
16504;SDS011;8365;51.030;4.696;2023-09-12T13:08:00;10.68;;;9.68;;
16504;SDS011;8365;51.030;4.696;2023-09-12T13:10:32;10.85;;;9.88;;
16504;SDS011;8365;51.030;4.696;2023-09-12T13:13:05;12.43;;;9.77;;
16504;SDS011;8365;51.030;4.696;2023-09-12T13:15:35;9.77;;;8.88;;
16504;SDS011;8365;51.030;4.696;2023-09-12T13:18:06;10.98;;;9.50;;
16504;SDS011;8365;51.030;4.696;2023-09-12T13:20:36;10.50;;;9.48;;
16504;SDS011;8365;51.030;4.696;2023-09-12T13:23:09;11.05;;;10.05;;
16504;SDS011;8365;51.030;4.696;2023-09-12T13:25:39;10.68;;;9.52;;
16504;SDS011;8365;51.030;4.696;2023-09-12T13:28:10;9.15;;;8.35;;
16504;SDS011;8365;51.030;4.696;2023-09-12T13:30:40;12.40;;;8.50;;
16504;SDS011;8365;51.030;4.696;2023-09-12T13:33:11;9.70;;;8.70;;
16504;SDS011;8365;51.030;4.696;2023-09-12T13:35:46;9.95;;;8.95;;
16504;SDS011;8365;51.030;4.696;2023-09-12T13:38:18;10.70;;;9.60;;
16504;SDS011;8365;51.030;4.696;2023-09-12T13:40:49;10.20;;;9.20;;
16504;SDS011;8365;51.030;4.696;2023-09-12T13:43:20;10.23;;;9.13;;
16504;SDS011;8365;51.030;4.696;2023-09-12T13:45:50;11.07;;;9.93;;
16504;SDS011;8365;51.030;4.696;2023-09-12T13:48:21;11.40;;;9.75;;
16504;SDS011;8365;51.030;4.696;2023-09-12T13:50:51;10.15;;;9.15;;
16504;SDS011;8365;51.030;4.696;2023-09-12T13:53:24;9.60;;;8.65;;
16504;SDS011;8365;51.030;4.696;2023-09-12T13:55:55;11.25;;;8.88;;
16504;SDS011;8365;51.030;4.696;2023-09-12T13:58:27;9.07;;;8.18;;
16504;SDS011;8365;51.030;4.696;2023-09-12T14:00:57;9.02;;;8.13;;
16504;SDS011;8365;51.030;4.696;2023-09-12T14:03:27;10.75;;;8.20;;
16504;SDS011;8365;51.030;4.696;2023-09-12T14:05:58;8.90;;;8.00;;
16504;SDS011;8365;51.030;4.696;2023-09-12T14:08:28;10.07;;;9.07;;
16504;SDS011;8365;51.030;4.696;2023-09-12T14:10:59;9.27;;;8.20;;
16504;SDS011;8365;51.030;4.696;2023-09-12T14:13:29;9.40;;;8.52;;
16504;SDS011;8365;51.030;4.696;2023-09-12T14:16:00;9.32;;;8.32;;
16504;SDS011;8365;51.030;4.696;2023-09-12T14:18:30;9.25;;;8.35;;
16504;SDS011;8365;51.030;4.696;2023-09-12T14:21:01;8.23;;;7.45;;
16504;SDS011;8365;51.030;4.696;2023-09-12T14:23:31;10.55;;;9.45;;
16504;SDS011;8365;51.030;4.696;2023-09-12T14:26:01;10.63;;;9.63;;
16504;SDS011;8365;51.030;4.696;2023-09-12T14:28:32;12.32;;;9.18;;
16504;SDS011;8365;51.030;4.696;2023-09-12T14:31:04;12.52;;;10.20;;
16504;SDS011;8365;51.030;4.696;2023-09-12T14:33:36;10.60;;;9.60;;
16504;SDS011;8365;51.030;4.696;2023-09-12T14:36:10;10.95;;;9.65;;
16504;SDS011;8365;51.030;4.696;2023-09-12T14:38:43;10.48;;;9.48;;
16504;SDS011;8365;51.030;4.696;2023-09-12T14:41:15;10.40;;;9.40;;
16504;SDS011;8365;51.030;4.696;2023-09-12T14:43:46;10.63;;;9.32;;
16504;SDS011;8365;51.030;4.696;2023-09-12T14:46:16;10.60;;;9.13;;
16504;SDS011;8365;51.030;4.696;2023-09-12T14:48:47;11.52;;;8.80;;
16504;SDS011;8365;51.030;4.696;2023-09-12T14:51:17;9.18;;;8.27;;
16504;SDS011;8365;51.030;4.696;2023-09-12T14:53:48;8.80;;;8.00;;
16504;SDS011;8365;51.030;4.696;2023-09-12T14:56:18;9.15;;;8.25;;
16504;SDS011;8365;51.030;4.696;2023-09-12T14:58:49;9.38;;;7.82;;
16504;SDS011;8365;51.030;4.696;2023-09-12T15:01:19;9.65;;;8.15;;
16504;SDS011;8365;51.030;4.696;2023-09-12T15:03:50;8.90;;;8.02;;
16504;SDS011;8365;51.030;4.696;2023-09-12T15:06:21;9.15;;;8.15;;
16504;SDS011;8365;51.030;4.696;2023-09-12T15:08:52;8.38;;;7.53;;
16504;SDS011;8365;51.030;4.696;2023-09-12T15:11:22;10.07;;;7.82;;
16504;SDS011;8365;51.030;4.696;2023-09-12T15:13:53;8.65;;;7.50;;
16504;SDS011;8365;51.030;4.696;2023-09-12T15:16:24;8.65;;;7.82;;
16504;SDS011;8365;51.030;4.696;2023-09-12T15:18:55;8.68;;;7.45;;